Time;durP1;ratioP1;P1;durP2;ratioP2;P2;SDS_P1;SDS_P2;PMS_P1;PMS_P2;Temp;Humidity;BMP_temperature;BMP_pressure;BME280_temperature;BME280_humidity;BME280_pressure;Samples;Min_cycle;Max_cycle;Signal;HPM_P1;HPM_P2
2023/09/10 00:00:03;;;;;;;15.60;5.60;;;;;;;6.51;100.00;101703.41;106755;1285;61373;-81
2023/09/10 00:02:28;;;;;;;11.90;4.80;;;;;;;6.54;100.00;101701.27;106747;1285;72857;-80
2023/09/10 00:04:54;;;;;;;12.60;4.90;;;;;;;6.50;100.00;101701.06;106764;1285;58253;-80
2023/09/10 00:07:19;;;;;;;10.30;5.20;;;;;;;6.51;100.00;101702.38;106700;1285;58168;-80
2023/09/10 00:09:45;;;;;;;11.90;4.90;;;;;;;6.47;100.00;101704.23;106718;1285;58510;-80
2023/09/10 00:12:10;;;;;;;9.40;4.50;;;;;;;6.48;100.00;101705.60;106476;1285;58156;-80
2023/09/10 00:14:36;;;;;;;10.00;4.50;;;;;;;6.50;100.00;101708.02;106728;1285;58139;-81
2023/09/10 00:17:01;;;;;;;13.30;4.80;;;;;;;6.48;100.00;101708.56;106731;1285;58184;-80
2023/09/10 00:19:27;;;;;;;10.40;4.80;;;;;;;6.48;100.00;101709.55;106766;1284;58090;-81
2023/09/10 00:21:52;;;;;;;11.30;4.90;;;;;;;6.49;100.00;101712.31;106556;1285;58132;-81
2023/09/10 00:24:18;;;;;;;9.90;5.50;;;;;;;6.48;100.00;101716.23;106894;1285;58123;-81
2023/09/10 00:26:43;;;;;;;11.70;5.50;;;;;;;6.44;100.00;101714.40;106492;1285;73998;-80
2023/09/10 00:29:09;;;;;;;10.20;5.20;;;;;;;6.45;100.00;101713.46;106774;1285;58121;-81
2023/09/10 00:31:34;;;;;;;10.50;4.60;;;;;;;6.45;100.00;101710.54;106520;1285;59340;-80
2023/09/10 00:34:00;;;;;;;14.00;5.30;;;;;;;6.43;100.00;101714.45;106806;1284;58323;-81
2023/09/10 00:36:25;;;;;;;13.20;4.90;;;;;;;6.48;100.00;101716.56;106859;1285;58039;-81
2023/09/10 00:38:51;;;;;;;9.50;4.60;;;;;;;6.46;100.00;101710.61;106788;1285;58143;-81
2023/09/10 00:41:17;;;;;;;12.40;5.00;;;;;;;6.45;100.00;101706.09;106846;1285;58316;-81
2023/09/10 00:43:42;;;;;;;8.70;4.80;;;;;;;6.46;100.00;101707.57;106817;1285;58391;-81
2023/09/10 00:46:08;;;;;;;11.00;5.20;;;;;;;6.47;100.00;101709.34;106828;1285;58651;-81
2023/09/10 00:48:36;;;;;;;9.30;5.00;;;;;;;6.46;100.00;101709.27;106750;1285;58128;-81
2023/09/10 00:51:03;;;;;;;11.30;5.10;;;;;;;6.44;100.00;101706.63;106770;1285;58149;-81
2023/09/10 00:53:29;;;;;;;11.60;4.60;;;;;;;6.46;100.00;101707.73;106769;1284;58150;-81
2023/09/10 00:55:54;;;;;;;10.70;5.50;;;;;;;6.45;100.00;101711.20;106550;1285;58161;-81
2023/09/10 00:58:20;;;;;;;12.30;5.40;;;;;;;6.46;100.00;101709.52;106781;1285;58261;-80
2023/09/10 01:00:47;;;;;;;10.10;4.90;;;;;;;6.46;100.00;101714.91;106768;1285;58204;-81
2023/09/10 01:03:15;;;;;;;11.40;4.80;;;;;;;6.38;100.00;101712.17;106737;1286;61236;-81
2023/09/10 01:05:40;;;;;;;9.00;4.80;;;;;;;6.29;100.00;101717.44;106753;1285;73088;-81
2023/09/10 01:08:06;;;;;;;9.20;4.70;;;;;;;6.31;100.00;101717.31;106821;1285;58173;-80
2023/09/10 01:11:27;;;;;;;11.00;5.20;;;;;;;6.31;100.00;101715.80;106760;1285;58141;-81
2023/09/10 01:14:11;;;;;;;9.80;4.80;;;;;;;6.25;100.00;101715.29;106063;1293;61804;-81
2023/09/10 01:16:52;;;;;;;12.50;5.40;;;;;;;6.19;100.00;101709.54;106006;1294;61216;-81
2023/09/10 01:19:42;;;;;;;12.00;4.90;;;;;;;6.19;100.00;101710.21;106033;1295;73846;-81
2023/09/10 01:22:24;;;;;;;10.90;5.20;;;;;;;6.18;100.00;101713.01;106074;1294;74231;-81
2023/09/10 01:24:51;;;;;;;11.80;4.90;;;;;;;6.14;100.00;101710.70;105924;1294;71605;-81
2023/09/10 01:27:17;;;;;;;9.30;4.90;;;;;;;6.15;100.00;101711.52;106069;1294;60794;-81
2023/09/10 01:29:43;;;;;;;8.60;4.30;;;;;;;6.14;100.00;101713.41;105905;1294;58200;-81
2023/09/10 01:32:14;;;;;;;10.90;4.70;;;;;;;6.09;100.00;101710.23;106088;1294;59057;-81
2023/09/10 01:34:49;;;;;;;10.60;4.80;;;;;;;6.10;100.00;101712.79;106043;1294;73426;-80
2023/09/10 01:37:23;;;;;;;12.30;5.20;;;;;;;6.07;100.00;101713.10;106048;1294;72120;-81
2023/09/10 01:39:53;;;;;;;10.50;4.90;;;;;;;6.07;100.00;101714.95;106039;1295;60217;-81
2023/09/10 01:42:21;;;;;;;9.30;4.80;;;;;;;6.07;100.00;101713.27;106069;1295;60043;-80
2023/09/10 01:44:48;;;;;;;10.10;4.80;;;;;;;6.08;100.00;101712.90;106169;1292;72858;-80
2023/09/10 01:47:13;;;;;;;11.40;5.20;;;;;;;6.07;100.00;101711.80;106336;1290;74515;-81
2023/09/10 01:49:39;;;;;;;11.90;4.90;;;;;;;6.08;100.00;101707.35;106334;1284;58276;-80
2023/09/10 01:52:05;;;;;;;9.60;4.40;;;;;;;6.04;100.00;101708.45;106828;1285;58198;-80
2023/09/10 01:54:30;;;;;;;17.60;4.60;;;;;;;6.04;100.00;101709.11;106852;1285;58411;-81
2023/09/10 01:56:56;;;;;;;9.70;4.60;;;;;;;6.04;100.00;101711.13;106614;1286;58750;-80
2023/09/10 01:59:21;;;;;;;9.50;5.00;;;;;;;5.99;100.00;101712.09;106783;1285;73428;-80
2023/09/10 02:01:47;;;;;;;7.30;4.20;;;;;;;5.97;100.00;101710.79;106548;1285;58173;-80
2023/09/10 02:04:12;;;;;;;11.40;4.50;;;;;;;5.94;100.00;101709.73;106835;1285;59105;-80
2023/09/10 02:06:38;;;;;;;7.20;3.90;;;;;;;5.92;100.00;101703.88;106841;1285;58115;-80
2023/09/10 02:09:03;;;;;;;9.80;4.50;;;;;;;5.94;100.00;101703.58;106843;1285;58165;-80
2023/09/10 02:11:29;;;;;;;11.60;4.90;;;;;;;5.90;100.00;101704.50;106525;1285;58351;-80
2023/09/10 02:13:54;;;;;;;10.70;4.30;;;;;;;5.91;100.00;101706.94;106815;1285;58101;-80
2023/09/10 02:16:20;;;;;;;10.10;4.40;;;;;;;5.90;100.00;101705.05;106835;1284;58536;-80
2023/09/10 02:18:46;;;;;;;12.80;4.70;;;;;;;5.90;100.00;101701.67;106779;1285;58923;-80
2023/09/10 02:21:12;;;;;;;7.60;4.20;;;;;;;5.91;100.00;101703.88;106510;1285;58211;-80
2023/09/10 02:23:38;;;;;;;8.60;4.00;;;;;;;5.91;100.00;101702.45;106577;1284;61029;-81
2023/09/10 02:26:03;;;;;;;7.90;4.40;;;;;;;5.87;100.00;101704.88;106828;1285;58073;-81
2023/09/10 02:28:29;;;;;;;12.50;4.80;;;;;;;5.88;100.00;101704.63;106503;1286;58618;-81
2023/09/10 02:30:54;;;;;;;9.00;4.80;;;;;;;5.89;100.00;101698.05;106776;1285;58442;-77
2023/09/10 02:33:20;;;;;;;9.50;4.30;;;;;;;5.89;100.00;101694.79;106528;1286;58265;-77
2023/09/10 02:35:46;;;;;;;9.10;4.20;;;;;;;5.89;100.00;101695.79;106876;1284;58126;-78
2023/09/10 02:38:11;;;;;;;12.70;4.40;;;;;;;5.87;100.00;101694.38;106771;1286;73345;-77
2023/09/10 02:40:37;;;;;;;8.30;4.30;;;;;;;5.87;100.00;101691.95;106834;1285;58992;-80
2023/09/10 02:43:02;;;;;;;9.40;4.60;;;;;;;5.83;100.00;101693.01;106777;1285;58516;-81
2023/09/10 02:45:28;;;;;;;6.90;3.90;;;;;;;5.82;100.00;101693.05;106809;1284;58105;-80
2023/09/10 02:47:53;;;;;;;8.00;4.40;;;;;;;5.82;100.00;101692.58;106878;1285;58212;-80
2023/09/10 02:50:19;;;;;;;9.70;4.50;;;;;;;5.79;100.00;101692.05;106802;1285;72458;-80
2023/09/10 02:52:44;;;;;;;8.40;4.50;;;;;;;5.81;100.00;101694.03;106816;1286;58080;-80
2023/09/10 02:55:10;;;;;;;11.30;4.30;;;;;;;5.82;100.00;101696.20;106790;1285;58178;-81
2023/09/10 02:57:35;;;;;;;11.40;4.60;;;;;;;5.81;100.00;101692.88;106520;1285;58189;-80
2023/09/10 03:00:01;;;;;;;9.70;4.40;;;;;;;5.83;100.00;101692.30;106816;1286;58089;-80
2023/09/10 03:02:26;;;;;;;11.60;5.20;;;;;;;5.83;100.00;101694.06;106795;1284;58161;-80
2023/09/10 03:04:53;;;;;;;13.10;4.20;;;;;;;5.84;100.00;101693.18;106794;1285;58146;-81
2023/09/10 03:07:18;;;;;;;10.20;4.80;;;;;;;5.86;100.00;101693.92;106424;1285;58111;-80
2023/09/10 03:09:44;;;;;;;7.30;4.00;;;;;;;5.88;100.00;101694.80;106812;1285;58154;-80
2023/09/10 03:12:24;;;;;;;10.80;4.40;;;;;;;5.90;100.00;101693.85;106796;1285;58098;-80
2023/09/10 03:14:50;;;;;;;12.80;4.40;;;;;;;5.92;100.00;101696.04;106769;1286;61826;-81
2023/09/10 03:17:17;;;;;;;10.50;4.30;;;;;;;5.94;100.00;101698.00;106812;1285;58117;-80
2023/09/10 03:19:43;;;;;;;10.80;3.80;;;;;;;5.96;100.00;101697.77;106531;1286;72890;-80
2023/09/10 03:22:09;;;;;;;11.50;4.60;;;;;;;5.97;100.00;101700.70;106593;1285;58141;-81
2023/09/10 03:24:36;;;;;;;8.70;3.60;;;;;;;6.00;100.00;101700.65;106781;1286;58493;-81
2023/09/10 03:27:02;;;;;;;8.10;4.00;;;;;;;6.04;100.00;101702.89;106773;1285;58095;-81
2023/09/10 03:29:27;;;;;;;7.70;4.30;;;;;;;6.10;100.00;101704.13;106584;1285;58050;-79
2023/09/10 03:31:53;;;;;;;8.80;3.80;;;;;;;6.15;100.00;101707.52;106813;1286;58083;-80
2023/09/10 03:34:19;;;;;;;8.10;3.60;;;;;;;6.23;100.00;101707.55;106811;1286;58272;-81
2023/09/10 03:36:44;;;;;;;9.00;4.40;;;;;;;6.30;100.00;101707.13;106846;1285;58185;-80
2023/09/10 03:39:10;;;;;;;11.50;4.30;;;;;;;6.39;100.00;101706.00;106800;1285;60439;-81
2023/09/10 03:41:35;;;;;;;9.60;3.90;;;;;;;6.46;100.00;101704.11;106478;1285;58320;-81
2023/09/10 03:44:01;;;;;;;9.70;3.50;;;;;;;6.53;100.00;101703.25;106820;1284;58325;-81
2023/09/10 03:46:26;;;;;;;13.90;4.80;;;;;;;6.63;100.00;101704.77;106810;1285;58565;-81
2023/09/10 03:48:52;;;;;;;16.70;4.80;;;;;;;6.76;100.00;101709.92;106815;1285;58233;-81
2023/09/10 03:51:17;;;;;;;9.10;4.20;;;;;;;6.91;100.00;101705.92;106812;1285;58245;-81
2023/09/10 03:53:43;;;;;;;10.30;4.20;;;;;;;7.08;100.00;101709.85;106804;1285;58284;-81
2023/09/10 03:56:08;;;;;;;7.70;4.20;;;;;;;7.27;100.00;101708.54;106459;1285;58306;-81
2023/09/10 03:58:34;;;;;;;9.30;4.60;;;;;;;7.45;100.00;101708.85;106742;1285;58280;-78
2023/09/10 04:00:59;;;;;;;9.60;3.70;;;;;;;7.63;100.00;101707.68;106849;1284;58245;-78
2023/09/10 04:03:26;;;;;;;5.40;3.20;;;;;;;7.86;100.00;101705.38;106753;1285;74709;-78
2023/09/10 04:05:52;;;;;;;12.10;3.90;;;;;;;8.27;100.00;101703.63;106746;1285;58209;-78
2023/09/10 04:08:18;;;;;;;10.60;3.70;;;;;;;9.26;100.00;101706.94;106787;1285;61113;-78
2023/09/10 04:10:44;;;;;;;8.40;3.30;;;;;;;10.67;100.00;101708.94;106454;1287;58605;-79
2023/09/10 04:13:09;;;;;;;5.40;2.80;;;;;;;12.06;100.00;101703.48;106821;1284;58354;-79
2023/09/10 04:15:35;;;;;;;7.90;3.50;;;;;;;13.29;100.00;101697.17;106757;1285;58590;-79
2023/09/10 04:18:00;;;;;;;12.40;3.60;;;;;;;14.41;100.00;101697.92;106389;1288;58284;-79
2023/09/10 04:20:26;;;;;;;6.90;2.80;;;;;;;15.66;100.00;101694.95;106399;1288;59866;-79
2023/09/10 04:22:51;;;;;;;5.60;2.50;;;;;;;16.68;100.00;101692.45;106467;1288;58329;-80
2023/09/10 04:25:17;;;;;;;6.90;2.60;;;;;;;17.64;100.00;101685.60;106459;1288;58284;-80
2023/09/10 04:27:42;;;;;;;7.30;2.60;;;;;;;18.47;100.00;101693.90;106459;1288;59317;-80
2023/09/10 04:30:08;;;;;;;5.90;2.80;;;;;;;19.41;97.98;101692.65;106435;1288;58298;-80
2023/09/10 04:32:34;;;;;;;6.70;3.10;;;;;;;20.16;92.28;101693.11;106465;1288;74545;-80
2023/09/10 04:34:59;;;;;;;6.90;3.10;;;;;;;20.85;82.12;101694.48;106454;1288;59156;-80
2023/09/10 04:37:26;;;;;;;10.10;2.70;;;;;;;21.53;76.64;101692.65;106477;1288;58604;-80
2023/09/10 04:39:51;;;;;;;8.80;3.00;;;;;;;22.30;70.26;101692.36;106455;1288;58296;-80
2023/09/10 04:42:17;;;;;;;9.50;2.60;;;;;;;23.06;66.60;101695.36;106454;1288;58331;-80
2023/09/10 04:44:42;;;;;;;7.10;3.40;;;;;;;23.74;62.36;101697.23;106508;1288;58216;-80
2023/09/10 04:47:08;;;;;;;4.40;2.60;;;;;;;24.27;58.14;101693.44;106435;1288;73979;-80
2023/09/10 04:49:33;;;;;;;7.30;2.90;;;;;;;24.71;55.41;101696.85;106656;1285;58421;-81
2023/09/10 04:51:59;;;;;;;9.60;2.70;;;;;;;25.03;53.63;101695.44;106904;1285;58300;-80
2023/09/10 04:54:24;;;;;;;12.40;2.70;;;;;;;25.39;52.01;101694.24;106777;1286;58481;-82
2023/09/10 04:56:53;;;;;;;3.90;2.30;;;;;;;25.75;50.08;101695.40;106946;1284;58206;-81
2023/09/10 04:59:19;;;;;;;10.10;2.40;;;;;;;26.01;47.79;101695.77;106862;1285;61026;-81
2023/09/10 05:01:45;;;;;;;7.20;2.40;;;;;;;25.06;45.71;101698.62;106610;1286;58231;-81
2023/09/10 05:04:10;;;;;;;7.50;2.30;;;;;;;23.71;46.39;101709.96;106847;1286;58257;-81
2023/09/10 05:06:36;;;;;;;7.80;2.50;;;;;;;22.58;47.99;101707.61;106939;1285;58186;-80
2023/09/10 05:09:02;;;;;;;7.60;3.00;;;;;;;21.65;49.02;101704.97;106760;1285;58315;-81
2023/09/10 05:11:27;;;;;;;6.40;2.60;;;;;;;20.85;50.68;101704.28;106940;1285;59052;-80
2023/09/10 05:13:53;;;;;;;6.30;2.90;;;;;;;20.14;51.69;101704.36;106891;1285;74521;-80
2023/09/10 05:16:19;;;;;;;7.90;2.90;;;;;;;19.51;52.93;101705.15;106872;1285;58331;-80
2023/09/10 05:18:44;;;;;;;9.30;2.90;;;;;;;19.12;54.44;101708.88;106870;1285;58248;-81
2023/09/10 05:21:10;;;;;;;6.70;3.20;;;;;;;18.75;55.05;101710.16;106891;1285;58200;-81
2023/09/10 05:23:35;;;;;;;6.90;2.60;;;;;;;18.40;57.17;101712.09;106882;1285;58320;-80
2023/09/10 05:26:02;;;;;;;9.60;2.70;;;;;;;18.14;58.64;101710.42;106955;1285;58572;-80
2023/09/10 05:28:29;;;;;;;6.80;3.20;;;;;;;17.96;60.13;101711.85;106920;1285;73220;-81
2023/09/10 05:30:54;;;;;;;6.20;2.90;;;;;;;17.71;60.76;101711.84;106904;1284;58169;-81
2023/09/10 05:33:19;;;;;;;7.80;3.20;;;;;;;17.53;62.32;101711.38;106860;1284;58237;-80
2023/09/10 05:35:58;;;;;;;7.90;3.20;;;;;;;17.41;63.93;101714.27;106825;1284;58278;-81
2023/09/10 05:38:24;;;;;;;9.00;3.40;;;;;;;17.26;65.67;101717.27;106780;1285;74396;-82
2023/09/10 05:40:50;;;;;;;7.60;3.30;;;;;;;17.21;67.23;101715.20;106797;1284;58298;-83
2023/09/10 05:43:16;;;;;;;7.60;3.40;;;;;;;17.19;69.13;101718.80;106834;1284;58209;-83
2023/09/10 05:45:41;;;;;;;5.90;3.30;;;;;;;17.14;69.60;101714.77;106854;1285;58290;-83
2023/09/10 05:48:07;;;;;;;6.70;3.10;;;;;;;17.16;71.50;101717.88;106814;1284;58185;-83
2023/09/10 05:50:32;;;;;;;9.70;3.30;;;;;;;17.19;71.18;101717.80;106886;1284;58640;-83
2023/09/10 05:52:59;;;;;;;6.90;3.30;;;;;;;17.14;72.16;101718.98;106796;1285;60151;-84
2023/09/10 05:55:25;;;;;;;6.60;2.90;;;;;;;17.02;70.63;101718.08;106837;1284;60264;-83
2023/09/10 05:57:55;;;;;;;6.10;3.30;;;;;;;17.00;73.24;101718.95;106853;1284;58328;-81
2023/09/10 06:00:21;;;;;;;8.20;3.20;;;;;;;17.03;72.50;101720.58;106558;1285;74193;-82
2023/09/10 06:02:49;;;;;;;8.70;2.70;;;;;;;17.04;72.41;101723.36;106781;1284;72420;-82
2023/09/10 06:05:15;;;;;;;9.00;2.70;;;;;;;17.07;73.16;101723.89;106775;1284;61132;-80
2023/09/10 06:07:42;;;;;;;5.60;2.60;;;;;;;17.11;75.08;101719.74;106817;1284;61113;-82
2023/09/10 06:10:09;;;;;;;10.90;2.70;;;;;;;17.19;74.97;101724.02;106833;1284;59396;-84
2023/09/10 06:12:38;;;;;;;7.30;2.40;;;;;;;17.27;75.36;101725.48;106808;1284;73420;-84
2023/09/10 06:15:05;;;;;;;6.00;2.20;;;;;;;17.29;72.96;101733.92;106769;1284;72542;-83
2023/09/10 06:17:31;;;;;;;4.70;2.70;;;;;;;17.21;71.99;101737.85;106775;1285;59895;-84
2023/09/10 06:19:56;;;;;;;4.10;2.00;;;;;;;17.22;70.92;101738.67;106452;1285;59164;-83
2023/09/10 06:22:22;;;;;;;5.20;2.20;;;;;;;17.23;69.93;101740.31;106623;1285;58189;-84
2023/09/10 06:24:47;;;;;;;6.20;1.90;;;;;;;17.29;70.11;101744.00;106844;1284;58315;-83
2023/09/10 06:27:13;;;;;;;4.90;2.00;;;;;;;17.42;69.90;101744.67;106885;1284;58250;-84
2023/09/10 06:29:38;;;;;;;11.70;3.10;;;;;;;17.51;69.61;101746.43;106866;1284;59867;-83
2023/09/10 06:32:04;;;;;;;11.30;3.60;;;;;;;17.56;67.82;101744.89;106881;1284;58436;-83
2023/09/10 06:34:30;;;;;;;3.50;2.00;;;;;;;17.53;65.83;101748.12;106817;1285;58272;-83
2023/09/10 06:36:56;;;;;;;6.90;2.40;;;;;;;17.44;65.05;101749.45;106973;1284;58365;-85
2023/09/10 06:39:22;;;;;;;8.50;2.50;;;;;;;17.47;66.41;101751.47;106927;1284;58175;-83
2023/09/10 06:41:47;;;;;;;10.50;3.60;;;;;;;17.70;67.43;101755.20;106657;1284;58320;-83
2023/09/10 06:44:13;;;;;;;12.60;3.60;;;;;;;17.81;65.81;101754.20;106903;1284;74319;-83
2023/09/10 06:46:38;;;;;;;5.20;2.40;;;;;;;17.90;65.97;101752.73;106906;1284;58184;-84
2023/09/10 06:49:04;;;;;;;6.10;2.30;;;;;;;17.96;65.99;101751.83;106908;1285;58664;-84
2023/09/10 06:51:29;;;;;;;5.00;1.90;;;;;;;18.12;65.65;101745.04;106991;1284;58687;-83
2023/09/10 06:53:55;;;;;;;3.90;1.80;;;;;;;18.31;65.16;101744.38;107005;1285;58359;-83
2023/09/10 06:56:20;;;;;;;7.10;1.90;;;;;;;18.51;64.67;101739.63;106983;1284;58282;-85
2023/09/10 06:58:47;;;;;;;6.90;1.70;;;;;;;18.60;63.72;101742.07;106935;1284;58276;-85
2023/09/10 07:01:18;;;;;;;3.60;1.60;;;;;;;18.73;63.05;101740.39;106968;1285;58269;-84
2023/09/10 07:03:44;;;;;;;4.30;2.20;;;;;;;18.98;61.75;101737.07;106950;1285;73851;-85
2023/09/10 07:06:10;;;;;;;3.90;1.90;;;;;;;19.19;61.72;101739.75;106837;1285;58616;-84
2023/09/10 07:08:36;;;;;;;6.30;2.00;;;;;;;19.44;61.39;101737.77;106920;1284;58490;-84
2023/09/10 07:11:02;;;;;;;6.80;1.90;;;;;;;19.70;60.27;101738.02;106917;1285;58299;-86
2023/09/10 07:13:29;;;;;;;5.10;1.70;;;;;;;19.74;59.03;101737.48;106955;1285;58299;-84
2023/09/10 07:15:55;;;;;;;4.60;1.60;;;;;;;19.77;58.49;101730.61;106657;1285;58399;-85
2023/09/10 07:18:21;;;;;;;3.20;1.80;;;;;;;19.81;57.85;101732.52;106845;1285;58228;-84
2023/09/10 07:20:46;;;;;;;3.90;1.80;;;;;;;19.82;57.81;101731.71;106620;1285;59249;-84
2023/09/10 07:23:12;;;;;;;6.70;1.70;;;;;;;19.87;57.92;101732.33;106978;1284;58327;-85
2023/09/10 07:25:39;;;;;;;4.40;1.30;;;;;;;19.96;58.25;101724.16;106702;1285;74476;-86
2023/09/10 07:28:06;;;;;;;2.70;1.70;;;;;;;20.17;58.02;101720.95;106924;1284;73399;-85
2023/09/10 07:30:31;;;;;;;6.10;2.00;;;;;;;20.31;58.11;101716.58;106927;1284;72359;-85
2023/09/10 07:32:57;;;;;;;6.50;1.80;;;;;;;20.52;57.93;101719.92;106951;1284;58593;-85
2023/09/10 07:35:22;;;;;;;6.90;2.00;;;;;;;20.67;57.13;101716.41;106948;1284;58231;-86
2023/09/10 07:37:48;;;;;;;8.80;2.30;;;;;;;20.76;56.75;101713.98;106794;1285;58341;-87
2023/09/10 07:40:14;;;;;;;3.90;1.40;;;;;;;21.00;57.29;101715.52;106832;1285;58328;-85
2023/09/10 07:42:40;;;;;;;5.60;1.90;;;;;;;21.26;56.68;101710.14;106884;1284;60079;-84
2023/09/10 07:45:14;;;;;;;2.50;1.60;;;;;;;21.25;56.24;101714.17;106813;1285;58416;-86
2023/09/10 07:47:42;;;;;;;6.00;1.80;;;;;;;21.16;56.24;101716.38;106720;1285;74969;-85
2023/09/10 07:50:08;;;;;;;4.30;1.90;;;;;;;21.13;56.47;101714.56;106883;1284;73447;-86
2023/09/10 07:52:34;;;;;;;3.70;1.40;;;;;;;21.09;56.23;101712.30;106813;1284;58253;-85
2023/09/10 07:54:59;;;;;;;3.20;1.60;;;;;;;21.04;56.91;101708.98;106786;1285;58406;-86
2023/09/10 07:57:25;;;;;;;3.20;1.50;;;;;;;21.06;56.60;101708.29;106908;1284;58345;-85
2023/09/10 07:59:51;;;;;;;3.00;1.50;;;;;;;21.04;56.89;101710.24;106829;1285;58290;-86
2023/09/10 08:02:17;;;;;;;4.10;1.60;;;;;;;21.06;56.66;101708.77;106874;1284;58295;-83
2023/09/10 08:04:43;;;;;;;5.20;1.50;;;;;;;20.97;56.54;101704.96;106921;1285;58227;-82
2023/09/10 08:07:10;;;;;;;3.90;1.90;;;;;;;20.90;56.45;101705.80;106850;1284;59970;-82
2023/09/10 08:09:37;;;;;;;4.40;1.60;;;;;;;20.85;56.23;101701.22;106790;1285;74612;-84
2023/09/10 08:12:03;;;;;;;3.50;1.50;;;;;;;20.73;56.40;101700.89;106669;1288;74917;-82
2023/09/10 08:14:29;;;;;;;3.80;1.50;;;;;;;20.66;57.04;101698.83;106804;1285;58487;-83
2023/09/10 08:16:55;;;;;;;4.30;1.40;;;;;;;20.72;57.83;101696.21;106887;1284;58206;-83
2023/09/10 08:19:21;;;;;;;2.80;1.60;;;;;;;20.71;57.21;101696.45;106875;1284;58277;-83
2023/09/10 08:21:46;;;;;;;6.50;1.70;;;;;;;20.62;57.05;101690.36;106863;1285;58291;-83
2023/09/10 08:24:12;;;;;;;4.40;1.50;;;;;;;20.67;57.24;101689.34;106838;1284;58386;-83
2023/09/10 08:26:37;;;;;;;10.40;2.60;;;;;;;20.76;57.33;101687.14;106904;1284;58668;-83
2023/09/10 08:29:04;;;;;;;2.80;1.70;;;;;;;21.00;57.51;101685.77;106656;1284;58367;-83
2023/09/10 08:31:30;;;;;;;4.60;1.60;;;;;;;21.24;57.23;101688.31;106850;1284;58151;-83
2023/09/10 08:33:55;;;;;;;3.60;1.50;;;;;;;21.46;56.88;101685.37;106873;1284;58338;-83
2023/09/10 08:36:21;;;;;;;3.30;1.50;;;;;;;21.71;56.25;101680.60;106863;1284;58230;-84
2023/09/10 08:38:46;;;;;;;2.80;1.50;;;;;;;21.88;54.97;101683.24;106875;1284;58533;-83
2023/09/10 08:41:32;;;;;;;3.00;1.20;;;;;;;21.84;54.82;101683.93;106865;1285;58294;-82
2023/09/10 08:43:58;;;;;;;3.60;1.40;;;;;;;21.92;54.92;101683.09;106877;1284;73314;-82
2023/09/10 08:46:30;;;;;;;3.30;1.30;;;;;;;22.07;54.94;101681.86;106848;1284;58399;-82
2023/09/10 08:49:00;;;;;;;8.70;1.50;;;;;;;22.20;54.20;101675.92;106704;1285;60614;-83
2023/09/10 08:51:26;;;;;;;3.90;1.70;;;;;;;22.27;54.57;101677.16;106879;1284;59940;-83
2023/09/10 08:53:56;;;;;;;3.90;2.10;;;;;;;22.36;54.30;101677.77;106777;1285;58242;-83
2023/09/10 08:56:22;;;;;;;4.30;2.20;;;;;;;22.34;54.34;101673.42;106823;1285;74258;-83
2023/09/10 08:58:48;;;;;;;5.40;2.30;;;;;;;22.39;53.86;101676.56;106370;1285;58788;-83
2023/09/10 09:01:14;;;;;;;7.30;4.00;;;;;;;22.37;54.29;101678.30;106697;1286;58235;-85
2023/09/10 09:03:40;;;;;;;6.60;3.00;;;;;;;22.50;54.59;101680.67;106932;1284;58217;-82
2023/09/10 09:06:06;;;;;;;4.20;2.30;;;;;;;22.62;54.42;101680.06;106891;1284;58301;-82
2023/09/10 09:08:34;;;;;;;5.30;2.30;;;;;;;22.67;54.58;101679.17;106735;1285;58347;-83
2023/09/10 09:11:07;;;;;;;6.10;2.30;;;;;;;23.17;55.31;101676.95;106852;1284;58257;-82
2023/09/10 09:13:38;;;;;;;6.00;2.60;;;;;;;24.51;54.31;101674.62;106783;1285;60104;-82
2023/09/10 09:16:05;;;;;;;5.90;3.00;;;;;;;24.96;50.83;101668.98;106710;1285;61090;-81
2023/09/10 09:18:35;;;;;;;6.50;3.30;;;;;;;24.80;50.76;101666.75;106879;1284;73714;-82
2023/09/10 09:21:08;;;;;;;21.40;4.00;;;;;;;24.68;50.60;101668.66;106635;1285;73536;-82
2023/09/10 09:23:44;;;;;;;5.70;3.20;;;;;;;24.46;50.19;101663.23;106801;1284;71252;-82
2023/09/10 09:26:11;;;;;;;3.80;2.30;;;;;;;24.42;50.66;101655.86;106818;1284;60148;-81
2023/09/10 09:28:38;;;;;;;5.10;2.40;;;;;;;24.62;50.75;101651.89;106654;1285;59397;-80
2023/09/10 09:31:09;;;;;;;6.20;3.00;;;;;;;24.59;49.50;101650.60;106868;1284;74625;-81
2023/09/10 09:33:36;;;;;;;9.90;3.00;;;;;;;24.29;50.21;101651.16;106834;1285;73461;-82
2023/09/10 09:36:09;;;;;;;7.10;2.90;;;;;;;24.26;50.54;101650.88;106820;1284;73676;-83
2023/09/10 09:38:35;;;;;;;4.10;2.40;;;;;;;24.21;50.14;101649.55;106839;1284;59989;-82
2023/09/10 09:41:04;;;;;;;8.30;2.70;;;;;;;24.25;50.51;101649.42;106860;1285;59260;-82
2023/09/10 09:43:33;;;;;;;4.80;2.80;;;;;;;24.51;50.66;101647.25;106849;1285;74451;-82
2023/09/10 09:45:58;;;;;;;4.80;2.20;;;;;;;24.97;50.53;101645.45;106863;1284;74232;-83
2023/09/10 09:48:24;;;;;;;4.90;2.30;;;;;;;25.09;49.01;101646.08;106619;1285;59212;-84
2023/09/10 09:50:50;;;;;;;7.10;3.00;;;;;;;24.93;49.20;101647.58;106833;1284;58580;-82
2023/09/10 09:53:16;;;;;;;5.70;2.40;;;;;;;25.13;49.51;101645.77;106812;1285;58609;-82
2023/09/10 09:55:44;;;;;;;5.40;2.50;;;;;;;25.55;49.24;101641.36;106825;1285;58328;-82
2023/09/10 09:58:10;;;;;;;5.90;2.30;;;;;;;25.77;48.68;101639.13;106874;1284;58298;-82
2023/09/10 10:00:37;;;;;;;7.00;2.50;;;;;;;26.02;48.18;101638.11;106788;1285;58615;-83
2023/09/10 10:03:04;;;;;;;8.90;3.20;;;;;;;26.26;47.94;101629.09;106416;1289;59001;-82
2023/09/10 10:05:32;;;;;;;5.60;2.50;;;;;;;26.52;47.11;101631.41;106519;1285;58454;-82
2023/09/10 10:07:58;;;;;;;5.20;2.50;;;;;;;26.72;46.68;101625.21;106830;1284;74688;-82
2023/09/10 10:10:24;;;;;;;5.70;2.80;;;;;;;26.70;46.29;101626.02;106634;1285;58241;-82
2023/09/10 10:12:52;;;;;;;5.10;2.90;;;;;;;26.74;46.14;101614.84;106829;1285;58440;-81
2023/09/10 10:15:19;;;;;;;5.10;2.50;;;;;;;26.60;45.65;101619.60;106819;1284;60131;-82
2023/09/10 10:17:46;;;;;;;4.10;2.40;;;;;;;26.29;45.34;101621.59;106690;1285;60281;-82
2023/09/10 10:20:13;;;;;;;7.30;3.20;;;;;;;25.86;45.58;101624.85;106876;1284;74695;-81
2023/09/10 10:22:39;;;;;;;5.10;2.80;;;;;;;25.71;46.78;101619.70;106880;1284;74134;-82
2023/09/10 10:25:06;;;;;;;5.80;2.90;;;;;;;25.86;46.39;101622.75;106822;1284;58377;-82
2023/09/10 10:27:35;;;;;;;6.80;2.80;;;;;;;25.77;46.22;101621.94;106857;1284;58274;-81
2023/09/10 10:30:02;;;;;;;4.90;2.30;;;;;;;25.53;46.36;101625.61;106853;1284;60156;-81
2023/09/10 10:32:42;;;;;;;4.10;2.50;;;;;;;25.49;46.88;101618.91;106929;1284;58235;-83
2023/09/10 10:35:12;;;;;;;4.30;2.50;;;;;;;25.26;46.63;101612.89;106878;1285;74424;-81
2023/09/10 10:37:57;;;;;;;4.60;2.60;;;;;;;25.22;47.41;101612.90;106876;1284;72237;-81
2023/09/10 10:40:34;;;;;;;6.00;2.70;;;;;;;25.21;47.13;101610.02;106874;1284;61233;-84
2023/09/10 10:43:12;;;;;;;3.40;2.60;;;;;;;25.13;47.29;101611.83;106849;1284;59887;-83
2023/09/10 10:45:38;;;;;;;11.80;2.70;;;;;;;24.79;47.11;101608.80;106887;1284;73592;-83
2023/09/10 10:48:12;;;;;;;9.40;2.50;;;;;;;24.53;48.52;101605.75;106840;1285;58624;-83
2023/09/10 10:50:38;;;;;;;4.20;2.20;;;;;;;24.77;48.85;101602.49;106851;1284;73447;-82
2023/09/10 10:53:11;;;;;;;5.60;2.40;;;;;;;25.00;48.45;101599.79;106703;1285;60218;-82
2023/09/10 10:55:38;;;;;;;3.60;2.50;;;;;;;25.19;47.84;101595.73;106897;1284;60384;-82
2023/09/10 10:58:03;;;;;;;7.30;2.50;;;;;;;25.03;47.43;101598.11;106878;1284;73722;-83
2023/09/10 11:00:29;;;;;;;3.00;2.00;;;;;;;24.82;47.65;101600.65;106837;1285;58242;-84
2023/09/10 11:03:08;;;;;;;4.20;2.60;;;;;;;24.87;48.06;101595.66;106859;1284;58305;-82
2023/09/10 11:06:04;;;;;;;5.50;2.10;;;;;;;25.10;47.80;101592.92;106397;1285;60346;-82
2023/09/10 11:08:41;;;;;;;4.10;2.20;;;;;;;25.16;47.62;101590.42;106388;1289;61118;-83
2023/09/10 11:11:27;;;;;;;3.40;2.00;;;;;;;25.19;48.20;101589.05;106403;1289;72282;-83
2023/09/10 11:14:02;;;;;;;5.40;2.30;;;;;;;25.25;47.46;101587.41;106441;1289;73255;-83